Time;durP1;ratioP1;P1;durP2;ratioP2;P2;SDS_P1;SDS_P2;PMS_P1;PMS_P2;Temp;Humidity;BMP_temperature;BMP_pressure;BME280_temperature;BME280_humidity;BME280_pressure;Samples;Min_cycle;Max_cycle;Signal;HPM_P1;HPM_P2
2023/11/04 00:00:15;;;;;;;2.43;1.80;;;;;;;;;;5079260;28;20277;-54
2023/11/04 00:02:42;;;;;;;2.90;2.17;;;;;;;;;;5066992;28;20172;-55
2023/11/04 00:05:09;;;;;;;1.70;1.60;;;;;;;;;;5066703;28;20229;-54
2023/11/04 00:07:35;;;;;;;3.10;2.00;;;;;;;;;;5055080;28;20185;-54
2023/11/04 00:10:01;;;;;;;5.63;2.23;;;;;;;;;;5064818;28;20664;-54
2023/11/04 00:12:27;;;;;;;2.10;1.80;;;;;;;;;;5067377;28;20259;-54
2023/11/04 00:14:54;;;;;;;3.23;2.13;;;;;;;;;;5066041;28;20219;-54
2023/11/04 00:17:20;;;;;;;4.13;1.83;;;;;;;;;;5064942;28;20720;-54
2023/11/04 00:19:46;;;;;;;5.37;2.10;;;;;;;;;;5061121;28;20188;-54
2023/11/04 00:22:14;;;;;;;3.53;2.00;;;;;;;;;;5074822;28;20201;-54
2023/11/04 00:24:40;;;;;;;2.00;1.80;;;;;;;;;;5064094;28;20252;-55
2023/11/04 00:27:07;;;;;;;3.23;1.60;;;;;;;;;;5065144;28;20654;-54
2023/11/04 00:29:33;;;;;;;3.97;1.80;;;;;;;;;;5065050;28;20639;-55
2023/11/04 00:31:59;;;;;;;2.10;1.67;;;;;;;;;;5066968;28;20215;-55
2023/11/04 00:34:26;;;;;;;3.40;1.60;;;;;;;;;;5058353;28;20176;-54
2023/11/04 00:36:52;;;;;;;2.93;1.80;;;;;;;;;;5062872;28;20176;-54
2023/11/04 00:39:18;;;;;;;3.23;2.17;;;;;;;;;;5060872;28;20558;-55
2023/11/04 00:41:44;;;;;;;2.97;1.90;;;;;;;;;;5065381;28;20176;-55
2023/11/04 00:44:11;;;;;;;2.23;1.97;;;;;;;;;;5065685;28;20255;-55
2023/11/04 00:46:38;;;;;;;3.60;1.90;;;;;;;;;;5064831;28;20173;-55
2023/11/04 00:49:05;;;;;;;4.03;1.73;;;;;;;;;;5060026;28;20210;-54
2023/11/04 00:51:31;;;;;;;2.40;2.20;;;;;;;;;;5063059;28;20590;-54
2023/11/04 00:53:58;;;;;;;3.37;1.90;;;;;;;;;;5060117;28;20180;-54
2023/11/04 00:56:24;;;;;;;2.40;1.73;;;;;;;;;;5059417;28;20173;-54
2023/11/04 00:58:52;;;;;;;3.57;1.80;;;;;;;;;;5060302;28;20641;-55
2023/11/04 01:01:18;;;;;;;3.43;1.57;;;;;;;;;;5063271;28;20176;-55
2023/11/04 01:03:45;;;;;;;1.60;1.50;;;;;;;;;;5059473;28;20672;-56
2023/11/04 01:06:11;;;;;;;4.27;1.77;;;;;;;;;;5054966;28;20181;-54
2023/11/04 01:08:38;;;;;;;4.33;1.70;;;;;;;;;;5064886;28;20668;-55
2023/11/04 01:11:04;;;;;;;2.97;1.43;;;;;;;;;;5066008;28;20176;-54
2023/11/04 01:13:30;;;;;;;1.93;1.70;;;;;;;;;;5063465;28;20242;-54
2023/11/04 01:15:57;;;;;;;3.13;1.47;;;;;;;;;;5066720;28;20181;-54
2023/11/04 01:18:23;;;;;;;4.83;1.53;;;;;;;;;;5064509;28;20171;-54
2023/11/04 01:20:49;;;;;;;1.63;1.50;;;;;;;;;;5063450;28;20191;-54
2023/11/04 01:23:16;;;;;;;2.07;1.40;;;;;;;;;;5061154;28;20589;-54
2023/11/04 01:25:42;;;;;;;2.03;1.30;;;;;;;;;;5063565;28;20187;-54
2023/11/04 01:28:08;;;;;;;4.40;2.00;;;;;;;;;;5063376;28;20703;-54
2023/11/04 01:30:35;;;;;;;1.47;1.33;;;;;;;;;;5060749;28;20176;-54
2023/11/04 01:33:01;;;;;;;3.93;1.40;;;;;;;;;;5064057;28;20269;-55
2023/11/04 01:35:28;;;;;;;2.90;1.40;;;;;;;;;;5061209;28;20276;-54
2023/11/04 01:37:54;;;;;;;1.23;1.20;;;;;;;;;;5063090;28;20172;-54
2023/11/04 01:40:21;;;;;;;1.53;1.43;;;;;;;;;;5063451;28;20200;-54
2023/11/04 01:42:47;;;;;;;2.80;1.40;;;;;;;;;;5070762;28;20577;-54
2023/11/04 01:45:15;;;;;;;4.63;1.40;;;;;;;;;;5060424;28;20314;-54
2023/11/04 01:47:41;;;;;;;2.13;1.30;;;;;;;;;;5062552;28;20173;-55
2023/11/04 01:50:08;;;;;;;1.23;1.17;;;;;;;;;;5063013;28;20172;-54
2023/11/04 01:52:37;;;;;;;2.23;1.73;;;;;;;;;;5064107;28;20702;-54
2023/11/04 01:55:03;;;;;;;1.00;1.00;;;;;;;;;;5053477;28;20258;-54
2023/11/04 01:57:30;;;;;;;1.33;1.07;;;;;;;;;;5064569;28;20169;-54
2023/11/04 01:59:56;;;;;;;0.90;0.90;;;;;;;;;;5062897;28;20204;-54
2023/11/04 02:02:23;;;;;;;0.90;0.90;;;;;;;;;;5064083;28;20180;-54
2023/11/04 02:04:49;;;;;;;1.00;1.00;;;;;;;;;;5072900;28;20174;-54
2023/11/04 02:07:16;;;;;;;0.90;0.90;;;;;;;;;;5057934;28;20183;-54
2023/11/04 02:09:42;;;;;;;0.90;0.90;;;;;;;;;;5055556;28;20180;-54
2023/11/04 02:12:08;;;;;;;1.03;0.93;;;;;;;;;;5060904;28;20228;-54
2023/11/04 02:14:34;;;;;;;2.30;1.00;;;;;;;;;;5060900;28;20296;-54
2023/11/04 02:17:01;;;;;;;0.90;0.90;;;;;;;;;;5061506;28;20172;-54
2023/11/04 02:19:27;;;;;;;1.00;1.00;;;;;;;;;;5062696;28;20200;-54
2023/11/04 02:21:55;;;;;;;1.00;1.00;;;;;;;;;;5065190;28;20192;-55
2023/11/04 02:24:21;;;;;;;0.90;0.90;;;;;;;;;;5063068;28;20184;-54
2023/11/04 02:26:48;;;;;;;0.80;0.80;;;;;;;;;;5065796;28;20196;-54
2023/11/04 02:29:14;;;;;;;0.80;0.80;;;;;;;;;;5065120;28;20176;-54
2023/11/04 02:31:41;;;;;;;0.93;0.90;;;;;;;;;;5068235;28;20582;-54
2023/11/04 02:34:07;;;;;;;1.00;1.00;;;;;;;;;;5064084;28;20180;-54
2023/11/04 02:36:35;;;;;;;0.97;0.80;;;;;;;;;;5063281;28;20396;-54
2023/11/04 02:39:02;;;;;;;0.90;0.90;;;;;;;;;;5061959;28;20346;-54
2023/11/04 02:41:28;;;;;;;1.10;1.10;;;;;;;;;;5065111;28;20499;-55
2023/11/04 02:43:55;;;;;;;1.10;1.00;;;;;;;;;;5067460;28;20208;-54
2023/11/04 02:46:24;;;;;;;1.10;1.00;;;;;;;;;;5063153;28;20177;-54
2023/11/04 02:48:50;;;;;;;0.90;0.90;;;;;;;;;;5064914;28;20184;-54
2023/11/04 02:51:16;;;;;;;2.43;0.80;;;;;;;;;;5063657;28;20189;-54
2023/11/04 02:53:46;;;;;;;0.90;0.90;;;;;;;;;;5061939;28;20180;-54
2023/11/04 02:56:15;;;;;;;1.13;1.10;;;;;;;;;;5062171;28;20173;-54
2023/11/04 02:58:41;;;;;;;1.43;1.33;;;;;;;;;;5059944;28;20575;-54
2023/11/04 03:01:08;;;;;;;3.10;1.10;;;;;;;;;;5062316;28;20184;-54
2023/11/04 03:03:34;;;;;;;1.10;1.00;;;;;;;;;;5061504;28;20647;-54
2023/11/04 03:06:01;;;;;;;2.13;1.20;;;;;;;;;;5060929;28;20189;-54
2023/11/04 03:08:29;;;;;;;1.10;1.10;;;;;;;;;;5051664;28;20192;-54
2023/11/04 03:10:55;;;;;;;0.80;0.80;;;;;;;;;;5060102;28;20179;-54
2023/11/04 03:13:21;;;;;;;1.10;1.00;;;;;;;;;;5053996;28;20550;-54
2023/11/04 03:15:47;;;;;;;0.83;0.83;;;;;;;;;;5061216;28;20172;-54
2023/11/04 03:18:13;;;;;;;1.07;0.97;;;;;;;;;;5059604;28;20187;-54
2023/11/04 03:20:39;;;;;;;1.00;1.00;;;;;;;;;;5065969;28;20184;-54
2023/11/04 03:23:06;;;;;;;0.87;0.87;;;;;;;;;;5064981;28;20249;-54
2023/11/04 03:25:32;;;;;;;0.93;0.93;;;;;;;;;;5065596;28;20184;-54
2023/11/04 03:27:58;;;;;;;1.17;1.10;;;;;;;;;;5064179;28;20680;-55
2023/11/04 03:30:25;;;;;;;0.90;0.90;;;;;;;;;;5065584;28;20177;-55
2023/11/04 03:32:51;;;;;;;0.93;0.90;;;;;;;;;;5060228;28;20254;-56
2023/11/04 03:35:17;;;;;;;1.17;1.07;;;;;;;;;;5061636;28;20275;-55
2023/11/04 03:37:43;;;;;;;2.00;1.00;;;;;;;;;;5063320;28;20603;-57
2023/11/04 03:40:10;;;;;;;1.30;1.20;;;;;;;;;;5064538;28;20208;-55
2023/11/04 03:42:37;;;;;;;0.90;0.90;;;;;;;;;;5068289;28;20271;-55
2023/11/04 03:45:04;;;;;;;1.10;1.00;;;;;;;;;;5062458;28;20183;-55
2023/11/04 03:47:31;;;;;;;1.07;1.07;;;;;;;;;;5064940;28;20214;-55
2023/11/04 03:49:57;;;;;;;2.93;1.20;;;;;;;;;;5058715;28;20663;-55
2023/11/04 03:52:23;;;;;;;1.03;1.00;;;;;;;;;;5067195;28;20203;-55
2023/11/04 03:54:53;;;;;;;0.97;0.97;;;;;;;;;;5065764;28;20188;-55
2023/11/04 03:57:19;;;;;;;1.23;1.07;;;;;;;;;;5061982;28;20621;-55
2023/11/04 03:59:45;;;;;;;1.27;1.27;;;;;;;;;;5064758;28;20585;-55
2023/11/04 04:02:11;;;;;;;1.93;0.83;;;;;;;;;;5065387;28;20266;-56
2023/11/04 04:04:37;;;;;;;1.03;1.00;;;;;;;;;;5058499;28;20177;-56
2023/11/04 04:07:04;;;;;;;1.70;1.20;;;;;;;;;;5062720;28;20181;-56
2023/11/04 04:09:32;;;;;;;1.07;1.03;;;;;;;;;;5059218;28;20185;-55
2023/11/04 04:11:58;;;;;;;0.90;0.90;;;;;;;;;;5066741;28;20202;-55
2023/11/04 04:14:24;;;;;;;0.80;0.80;;;;;;;;;;5057007;28;20782;-55
2023/11/04 04:16:50;;;;;;;2.60;2.40;;;;;;;;;;5056406;28;20208;-55
2023/11/04 04:19:16;;;;;;;0.90;0.90;;;;;;;;;;5075797;28;20204;-55
2023/11/04 04:21:43;;;;;;;1.40;1.30;;;;;;;;;;5064495;28;20255;-55
2023/11/04 04:24:09;;;;;;;1.13;1.13;;;;;;;;;;5064301;28;20177;-55
2023/11/04 04:26:35;;;;;;;1.33;1.03;;;;;;;;;;5061627;28;20185;-55
2023/11/04 04:29:01;;;;;;;1.00;1.00;;;;;;;;;;5066424;28;20190;-55
2023/11/04 04:31:28;;;;;;;1.17;1.17;;;;;;;;;;5065484;28;20185;-55
2023/11/04 04:33:54;;;;;;;1.30;1.20;;;;;;;;;;5047046;28;20208;-55
2023/11/04 04:36:20;;;;;;;1.10;1.10;;;;;;;;;;5042849;28;20642;-54
2023/11/04 04:38:48;;;;;;;1.20;1.10;;;;;;;;;;5039796;28;20224;-55
2023/11/04 04:41:14;;;;;;;1.23;1.20;;;;;;;;;;5046182;28;20193;-55
2023/11/04 04:43:40;;;;;;;2.13;1.33;;;;;;;;;;5046906;28;20182;-55
2023/11/04 04:46:06;;;;;;;1.70;1.43;;;;;;;;;;5043331;28;20169;-55
2023/11/04 04:48:36;;;;;;;1.40;1.30;;;;;;;;;;5042404;28;20185;-56
2023/11/04 04:51:02;;;;;;;1.83;1.20;;;;;;;;;;5045310;28;20512;-55
2023/11/04 04:53:28;;;;;;;1.10;1.10;;;;;;;;;;5046090;28;20184;-55
2023/11/04 04:55:54;;;;;;;1.13;0.90;;;;;;;;;;5043036;28;20687;-57
2023/11/04 04:58:21;;;;;;;1.00;1.00;;;;;;;;;;5038607;28;20213;-54
2023/11/04 05:00:47;;;;;;;1.53;1.43;;;;;;;;;;5043221;28;20177;-55
2023/11/04 05:03:13;;;;;;;1.67;1.57;;;;;;;;;;5045290;28;20216;-55
2023/11/04 05:05:39;;;;;;;1.70;1.13;;;;;;;;;;5045482;28;20264;-55
2023/11/04 05:08:06;;;;;;;1.80;1.70;;;;;;;;;;5044687;28;20671;-55
2023/11/04 05:10:33;;;;;;;1.30;1.10;;;;;;;;;;5046564;28;20183;-55
2023/11/04 05:12:59;;;;;;;1.10;1.10;;;;;;;;;;5044660;28;20543;-55
2023/11/04 05:15:26;;;;;;;2.07;1.60;;;;;;;;;;5041169;28;20284;-56
2023/11/04 05:17:52;;;;;;;0.97;0.97;;;;;;;;;;5040563;28;20184;-55
2023/11/04 05:20:18;;;;;;;3.43;1.40;;;;;;;;;;5044052;28;20665;-55
2023/11/04 05:22:44;;;;;;;1.27;1.17;;;;;;;;;;5040535;28;20274;-55
2023/11/04 05:25:10;;;;;;;5.63;1.57;;;;;;;;;;5041609;28;20617;-55
2023/11/04 05:27:36;;;;;;;1.43;1.13;;;;;;;;;;5043436;28;20264;-55
2023/11/04 05:30:03;;;;;;;1.37;0.90;;;;;;;;;;5037671;28;20604;-55
2023/11/04 05:32:29;;;;;;;0.90;0.90;;;;;;;;;;5054277;28;20352;-55
2023/11/04 05:34:59;;;;;;;1.03;1.00;;;;;;;;;;5056457;28;20577;-55
2023/11/04 05:37:25;;;;;;;1.27;1.17;;;;;;;;;;5057204;28;20242;-57
2023/11/04 05:39:51;;;;;;;1.07;1.00;;;;;;;;;;5062792;28;20675;-55
2023/11/04 05:42:17;;;;;;;2.83;1.10;;;;;;;;;;5057441;28;20509;-55
2023/11/04 05:44:44;;;;;;;0.80;0.80;;;;;;;;;;5061743;28;20628;-55
2023/11/04 05:47:10;;;;;;;0.93;0.93;;;;;;;;;;5062049;28;20181;-55
2023/11/04 05:49:36;;;;;;;1.53;1.43;;;;;;;;;;5058915;28;20321;-55
2023/11/04 05:52:05;;;;;;;1.03;1.03;;;;;;;;;;5059809;28;20263;-55
2023/11/04 05:54:32;;;;;;;1.00;0.90;;;;;;;;;;5058817;28;20605;-56
2023/11/04 05:56:58;;;;;;;0.90;0.90;;;;;;;;;;5063320;28;20215;-55
2023/11/04 05:59:25;;;;;;;1.63;0.93;;;;;;;;;;5059428;28;20201;-55
2023/11/04 06:01:51;;;;;;;0.90;0.90;;;;;;;;;;5058102;28;20748;-55
2023/11/04 06:04:17;;;;;;;4.03;1.97;;;;;;;;;;5063776;28;20226;-55
2023/11/04 06:06:43;;;;;;;1.00;1.00;;;;;;;;;;5066380;28;20192;-55
2023/11/04 06:09:11;;;;;;;1.37;1.20;;;;;;;;;;5068779;28;20196;-55
2023/11/04 06:11:37;;;;;;;1.07;1.00;;;;;;;;;;5064606;28;20184;-56
2023/11/04 06:14:03;;;;;;;1.13;1.03;;;;;;;;;;5068978;28;20184;-57
2023/11/04 06:16:33;;;;;;;1.40;1.30;;;;;;;;;;5069498;28;20181;-55
2023/11/04 06:19:00;;;;;;;2.13;1.00;;;;;;;;;;5064787;28;20231;-55
2023/11/04 06:21:26;;;;;;;1.93;1.30;;;;;;;;;;5068766;28;20177;-55
2023/11/04 06:23:53;;;;;;;1.10;1.00;;;;;;;;;;5068483;28;20187;-54
2023/11/04 06:26:22;;;;;;;1.00;1.00;;;;;;;;;;5054624;28;20267;-54
2023/11/04 06:28:49;;;;;;;1.73;0.90;;;;;;;;;;5074285;28;20192;-54
2023/11/04 06:31:16;;;;;;;1.40;1.23;;;;;;;;;;5071343;28;20483;-54
2023/11/04 06:33:43;;;;;;;1.10;1.00;;;;;;;;;;5067536;28;20236;-54
2023/11/04 06:36:12;;;;;;;1.17;1.07;;;;;;;;;;5065369;28;20181;-54
2023/11/04 06:38:39;;;;;;;1.20;1.20;;;;;;;;;;5062876;28;20180;-53
2023/11/04 06:41:11;;;;;;;1.43;1.33;;;;;;;;;;5065227;28;20176;-53
2023/11/04 06:43:38;;;;;;;0.83;0.83;;;;;;;;;;5068535;28;20248;-53
2023/11/04 06:46:05;;;;;;;0.87;0.87;;;;;;;;;;5065766;28;20181;-54
2023/11/04 06:48:31;;;;;;;1.60;1.00;;;;;;;;;;5059274;28;20173;-54
2023/11/04 06:50:58;;;;;;;1.27;1.03;;;;;;;;;;5061929;28;20204;-54
2023/11/04 06:53:24;;;;;;;1.00;1.00;;;;;;;;;;5061259;28;20263;-54
2023/11/04 06:55:51;;;;;;;1.20;1.10;;;;;;;;;;5063842;28;20176;-54
2023/11/04 06:58:17;;;;;;;0.93;0.93;;;;;;;;;;5054262;28;20274;-54
2023/11/04 07:00:44;;;;;;;1.20;1.10;;;;;;;;;;5068348;28;20552;-54
2023/11/04 07:03:11;;;;;;;0.97;0.97;;;;;;;;;;5065296;28;20250;-54
2023/11/04 07:05:38;;;;;;;1.30;1.00;;;;;;;;;;5063220;28;20206;-55
2023/11/04 07:08:05;;;;;;;0.90;0.90;;;;;;;;;;5063910;28;20215;-55
2023/11/04 07:10:31;;;;;;;1.27;1.17;;;;;;;;;;5062690;28;20183;-55
2023/11/04 07:12:57;;;;;;;1.60;1.03;;;;;;;;;;5062754;28;20218;-55
2023/11/04 07:15:24;;;;;;;0.93;0.90;;;;;;;;;;5064783;28;20176;-54
2023/11/04 07:17:50;;;;;;;1.90;0.90;;;;;;;;;;5065149;28;20267;-55
2023/11/04 07:20:16;;;;;;;0.80;0.80;;;;;;;;;;5063186;28;20201;-55
2023/11/04 07:22:44;;;;;;;1.20;1.10;;;;;;;;;;5062120;28;20269;-55
2023/11/04 07:25:10;;;;;;;1.00;1.00;;;;;;;;;;5066451;28;20294;-54
2023/11/04 07:27:36;;;;;;;1.17;1.07;;;;;;;;;;5064889;28;20176;-55
2023/11/04 07:30:03;;;;;;;1.10;0.90;;;;;;;;;;5063948;28;20191;-55
2023/11/04 07:32:29;;;;;;;1.33;1.10;;;;;;;;;;5068080;28;20224;-55
2023/11/04 07:34:56;;;;;;;1.10;1.00;;;;;;;;;;5065392;28;20185;-55
2023/11/04 07:37:22;;;;;;;1.40;1.30;;;;;;;;;;5062627;28;20180;-55
2023/11/04 07:39:48;;;;;;;1.27;1.17;;;;;;;;;;5064477;28;20262;-56
2023/11/04 07:42:14;;;;;;;1.90;1.63;;;;;;;;;;5065467;28;20275;-55
2023/11/04 07:44:41;;;;;;;1.07;1.00;;;;;;;;;;5067900;28;20189;-55
2023/11/04 07:47:07;;;;;;;1.60;1.20;;;;;;;;;;5066380;28;20234;-55
2023/11/04 07:49:34;;;;;;;1.70;1.30;;;;;;;;;;5064443;28;20185;-55
2023/11/04 07:52:00;;;;;;;5.87;1.27;;;;;;;;;;5067108;28;20195;-55
2023/11/04 07:54:26;;;;;;;1.33;1.20;;;;;;;;;;5075298;28;20728;-55
2023/11/04 07:56:53;;;;;;;1.37;1.27;;;;;;;;;;5066649;28;20740;-55
2023/11/04 07:59:19;;;;;;;1.20;1.10;;;;;;;;;;5062629;28;20208;-54
2023/11/04 08:01:46;;;;;;;2.33;1.20;;;;;;;;;;5060983;28;20203;-55
2023/11/04 08:04:12;;;;;;;2.70;1.10;;;;;;;;;;5063898;28;20180;-55
2023/11/04 08:06:38;;;;;;;1.47;1.00;;;;;;;;;;5059516;28;20276;-55
2023/11/04 08:09:06;;;;;;;2.30;1.20;;;;;;;;;;5078760;28;20737;-54
2023/11/04 08:11:32;;;;;;;0.90;0.90;;;;;;;;;;5064097;28;20172;-54
2023/11/04 08:13:59;;;;;;;2.40;1.20;;;;;;;;;;5063513;28;20249;-54
2023/11/04 08:16:25;;;;;;;0.93;0.90;;;;;;;;;;5067638;28;20184;-55
2023/11/04 08:18:51;;;;;;;2.97;0.97;;;;;;;;;;5059911;28;20668;-54
2023/11/04 08:21:18;;;;;;;1.90;1.20;;;;;;;;;;5064145;28;20164;-54
2023/11/04 08:23:44;;;;;;;1.33;1.20;;;;;;;;;;5066272;28;20173;-54
2023/11/04 08:26:10;;;;;;;2.03;1.10;;;;;;;;;;5065794;28;20175;-54
2023/11/04 08:28:36;;;;;;;1.17;1.07;;;;;;;;;;5064809;28;20601;-55
2023/11/04 08:31:03;;;;;;;0.97;0.97;;;;;;;;;;5070989;28;20204;-55
2023/11/04 08:33:29;;;;;;;1.57;1.00;;;;;;;;;;5067731;28;20220;-54
2023/11/04 08:35:56;;;;;;;0.80;0.80;;;;;;;;;;5068666;28;20184;-54
2023/11/04 08:38:22;;;;;;;1.80;1.10;;;;;;;;;;5075412;28;20533;-54
2023/11/04 08:40:48;;;;;;;3.13;1.03;;;;;;;;;;5068403;28;20254;-54
2023/11/04 08:43:15;;;;;;;1.07;1.00;;;;;;;;;;5067443;28;20179;-54
2023/11/04 08:45:41;;;;;;;0.93;0.93;;;;;;;;;;5068343;28;20183;-54
2023/11/04 08:48:07;;;;;;;2.43;1.07;;;;;;;;;;5067612;28;20177;-54
2023/11/04 08:50:34;;;;;;;1.80;1.10;;;;;;;;;;5067580;28;20300;-54
2023/11/04 08:53:00;;;;;;;1.10;0.97;;;;;;;;;;5066853;28;20723;-54
2023/11/04 08:55:26;;;;;;;1.20;1.00;;;;;;;;;;5068341;28;20540;-54
2023/11/04 08:57:53;;;;;;;0.80;0.80;;;;;;;;;;5067159;28;20719;-55
2023/11/04 09:00:20;;;;;;;2.00;0.80;;;;;;;;;;5066888;28;20337;-54
2023/11/04 09:02:46;;;;;;;0.80;0.80;;;;;;;;;;5066784;28;20214;-55
2023/11/04 09:05:13;;;;;;;1.33;1.20;;;;;;;;;;5083147;28;20172;-52
2023/11/04 09:07:39;;;;;;;1.50;1.40;;;;;;;;;;5067136;28;20191;-53
2023/11/04 09:10:05;;;;;;;1.13;0.93;;;;;;;;;;5064032;28;20189;-53
2023/11/04 09:12:32;;;;;;;2.20;1.53;;;;;;;;;;5060118;28;20180;-55
2023/11/04 09:14:59;;;;;;;1.17;1.07;;;;;;;;;;5062756;28;20550;-55
2023/11/04 09:17:25;;;;;;;3.60;1.57;;;;;;;;;;5067192;28;20515;-55
2023/11/04 09:19:51;;;;;;;5.50;1.20;;;;;;;;;;5064052;28;20193;-56
2023/11/04 09:22:18;;;;;;;1.00;1.00;;;;;;;;;;5065230;28;20169;-55
2023/11/04 09:24:44;;;;;;;1.47;1.37;;;;;;;;;;5066960;28;20165;-56
2023/11/04 09:27:10;;;;;;;2.93;1.00;;;;;;;;;;5066413;28;20212;-55
2023/11/04 09:29:37;;;;;;;1.30;1.10;;;;;;;;;;5066134;28;20180;-55
2023/11/04 09:32:03;;;;;;;0.90;0.90;;;;;;;;;;5057310;28;20278;-54
2023/11/04 09:34:30;;;;;;;1.83;1.10;;;;;;;;;;5062129;28;20219;-56
2023/11/04 09:36:56;;;;;;;1.03;1.03;;;;;;;;;;5065638;28;20176;-55
2023/11/04 09:39:23;;;;;;;1.20;1.10;;;;;;;;;;5059312;28;20207;-55
2023/11/04 09:41:51;;;;;;;1.13;1.13;;;;;;;;;;5066263;28;20187;-55
2023/11/04 09:44:18;;;;;;;1.00;1.00;;;;;;;;;;5062746;28;20702;-54
2023/11/04 09:46:45;;;;;;;1.10;1.10;;;;;;;;;;5065671;28;20230;-54
2023/11/04 09:49:12;;;;;;;0.97;0.97;;;;;;;;;;5069328;28;20275;-56
2023/11/04 09:51:39;;;;;;;1.20;1.10;;;;;;;;;;5063172;28;20200;-61
2023/11/04 09:54:07;;;;;;;0.93;0.93;;;;;;;;;;5061520;28;20273;-55
2023/11/04 09:56:33;;;;;;;1.03;0.97;;;;;;;;;;5059885;28;20188;-56
2023/11/04 09:58:59;;;;;;;1.17;1.10;;;;;;;;;;5052380;28;20200;-56
2023/11/04 10:01:27;;;;;;;2.17;1.40;;;;;;;;;;5077428;28;20203;-55
2023/11/04 10:03:54;;;;;;;1.87;1.20;;;;;;;;;;5069419;28;20187;-55
2023/11/04 10:06:22;;;;;;;1.03;1.03;;;;;;;;;;5069319;28;20525;-56
2023/11/04 10:08:49;;;;;;;1.73;1.23;;;;;;;;;;5070846;28;20169;-55
2023/11/04 10:11:16;;;;;;;2.40;1.30;;;;;;;;;;5071565;28;20183;-55
2023/11/04 10:13:42;;;;;;;1.77;1.20;;;;;;;;;;5070901;28;20223;-53
2023/11/04 10:16:08;;;;;;;1.40;1.20;;;;;;;;;;5071287;28;20195;-54
2023/11/04 10:18:34;;;;;;;1.30;1.20;;;;;;;;;;5070033;28;20218;-56
2023/11/04 10:21:01;;;;;;;1.30;1.20;;;;;;;;;;5071172;28;20579;-54
2023/11/04 10:23:29;;;;;;;2.20;1.20;;;;;;;;;;5070431;28;20177;-54
2023/11/04 10:25:59;;;;;;;2.00;1.07;;;;;;;;;;5070121;28;20220;-55
2023/11/04 10:28:25;;;;;;;3.87;1.30;;;;;;;;;;5071067;28;20214;-55
2023/11/04 10:30:58;;;;;;;1.83;1.30;;;;;;;;;;5071306;28;20641;-55
2023/11/04 10:33:25;;;;;;;1.27;1.13;;;;;;;;;;5070131;28;20240;-55
2023/11/04 10:35:53;;;;;;;4.27;1.40;;;;;;;;;;5058988;28;20212;-55
2023/11/04 10:38:19;;;;;;;1.30;1.03;;;;;;;;;;5081160;28;20624;-56
2023/11/04 10:40:49;;;;;;;1.40;1.30;;;;;;;;;;5088414;28;20631;-56
2023/11/04 10:43:16;;;;;;;2.93;2.47;;;;;;;;;;5069823;28;20555;-54
2023/11/04 10:45:52;;;;;;;1.73;1.50;;;;;;;;;;5070163;28;20655;-55
2023/11/04 10:48:33;;;;;;;1.60;1.30;;;;;;;;;;5066551;28;20180;-56
2023/11/04 10:51:06;;;;;;;1.60;1.50;;;;;;;;;;5059920;28;20582;-56
2023/11/04 10:53:53;;;;;;;1.30;1.20;;;;;;;;;;5070199;28;20195;-55
2023/11/04 10:56:21;;;;;;;4.13;1.93;;;;;;;;;;5065234;28;20218;-56
2023/11/04 10:58:53;;;;;;;1.53;1.40;;;;;;;;;;5069236;28;20310;-56
2023/11/04 11:01:20;;;;;;;2.43;1.57;;;;;;;;;;5067021;28;20176;-56
2023/11/04 11:03:49;;;;;;;1.70;1.37;;;;;;;;;;5069311;28;20617;-55
2023/11/04 11:06:16;;;;;;;1.80;1.40;;;;;;;;;;5068714;28;20204;-56
2023/11/04 11:08:46;;;;;;;1.20;1.10;;;;;;;;;;5069476;28;20234;-56
2023/11/04 11:11:20;;;;;;;1.87;1.30;;;;;;;;;;5069663;28;20219;-56
2023/11/04 11:13:49;;;;;;;2.23;1.57;;;;;;;;;;5069459;28;20184;-56
2023/11/04 11:16:15;;;;;;;2.60;1.60;;;;;;;;;;5066264;28;20177;-56
2023/11/04 11:18:42;;;;;;;10.13;6.00;;;;;;;;;;5068708;28;20630;-55
2023/11/04 11:21:11;;;;;;;9.83;6.27;;;;;;;;;;5066887;28;20180;-55
2023/11/04 11:23:38;;;;;;;10.63;8.10;;;;;;;;;;5065574;28;20333;-56
2023/11/04 11:26:05;;;;;;;14.87;6.80;;;;;;;;;;5069063;28;20180;-57
2023/11/04 11:28:39;;;;;;;14.37;8.57;;;;;;;;;;5066278;28;20184;-55
2023/11/04 11:31:12;;;;;;;14.70;9.27;;;;;;;;;;5058275;28;20165;-55
2023/11/04 11:33:42;;;;;;;20.83;12.63;;;;;;;;;;5067952;28;20228;-56
2023/11/04 11:36:15;;;;;;;28.23;16.50;;;;;;;;;;5059779;28;20184;-56
2023/11/04 11:38:45;;;;;;;51.87;29.60;;;;;;;;;;5051018;28;20169;-55
2023/11/04 11:41:13;;;;;;;26.37;15.67;;;;;;;;;;5069483;28;20173;-56
2023/11/04 11:43:40;;;;;;;15.70;9.97;;;;;;;;;;5069243;28;20303;-56
2023/11/04 11:46:08;;;;;;;18.73;10.53;;;;;;;;;;5069566;28;20212;-57
2023/11/04 11:48:38;;;;;;;8.80;6.63;;;;;;;;;;5068285;28;20253;-58
2023/11/04 11:51:07;;;;;;;8.70;5.30;;;;;;;;;;5069258;28;20266;-58
2023/11/04 11:53:34;;;;;;;6.50;3.73;;;;;;;;;;5063521;28;20185;-58
2023/11/04 11:56:01;;;;;;;6.00;4.10;;;;;;;;;;5055606;28;20280;-57
2023/11/04 11:58:28;;;;;;;4.40;3.53;;;;;;;;;;5051168;28;20227;-58
2023/11/04 12:00:57;;;;;;;4.23;2.40;;;;;;;;;;5059205;28;20224;-57
2023/11/04 12:03:24;;;;;;;3.13;2.00;;;;;;;;;;5066244;28;20628;-57
2023/11/04 12:05:50;;;;;;;3.77;2.20;;;;;;;;;;5058993;28;20190;-57
2023/11/04 12:08:16;;;;;;;4.33;2.60;;;;;;;;;;5064866;28;20184;-57
2023/11/04 12:10:46;;;;;;;2.60;1.87;;;;;;;;;;5068861;28;20165;-57
2023/11/04 12:13:16;;;;;;;2.63;1.70;;;;;;;;;;5065548;28;20197;-56
2023/11/04 12:15:44;;;;;;;3.23;1.73;;;;;;;;;;5068283;28;20606;-57
2023/11/04 12:18:11;;;;;;;2.67;1.80;;;;;;;;;;5065216;28;20759;-57
2023/11/04 12:20:39;;;;;;;1.93;1.77;;;;;;;;;;5057285;28;20660;-57
2023/11/04 12:23:06;;;;;;;2.87;2.00;;;;;;;;;;5062551;28;20174;-57
2023/11/04 12:25:34;;;;;;;2.33;1.93;;;;;;;;;;5058562;28;20184;-56
2023/11/04 12:28:01;;;;;;;4.90;1.83;;;;;;;;;;5067648;28;20177;-56
2023/11/04 12:30:31;;;;;;;1.47;1.37;;;;;;;;;;5066387;28;20170;-57
2023/11/04 12:32:58;;;;;;;2.37;1.67;;;;;;;;;;5059837;28;20312;-57
2023/11/04 12:35:25;;;;;;;1.20;1.10;;;;;;;;;;5063158;28;20178;-57
2023/11/04 12:37:54;;;;;;;1.30;1.20;;;;;;;;;;5068280;28;20543;-56
2023/11/04 12:40:21;;;;;;;1.43;1.33;;;;;;;;;;5064328;28;20232;-56
2023/11/04 12:42:49;;;;;;;2.13;1.50;;;;;;;;;;5066604;28;20698;-57
2023/11/04 12:45:15;;;;;;;3.67;1.67;;;;;;;;;;5067788;28;20172;-57
2023/11/04 12:47:42;;;;;;;2.03;1.60;;;;;;;;;;5063700;28;20180;-56
2023/11/04 12:50:13;;;;;;;1.40;1.30;;;;;;;;;;5068232;28;20311;-55
2023/11/04 12:52:39;;;;;;;2.53;1.67;;;;;;;;;;5068268;28;20188;-55
2023/11/04 12:55:06;;;;;;;1.57;1.20;;;;;;;;;;5067615;28;20183;-55
2023/11/04 12:57:33;;;;;;;3.13;1.80;;;;;;;;;;5068581;28;20177;-55
2023/11/04 12:59:59;;;;;;;1.50;1.37;;;;;;;;;;5068790;28;20259;-54
2023/11/04 13:02:28;;;;;;;1.40;1.30;;;;;;;;;;5066661;28;20328;-55
2023/11/04 13:04:57;;;;;;;2.60;1.40;;;;;;;;;;5062661;28;20218;-55
2023/11/04 13:07:26;;;;;;;2.43;1.40;;;;;;;;;;5066071;28;20636;-55
2023/11/04 13:09:54;;;;;;;1.83;1.40;;;;;;;;;;5067826;28;20657;-55
2023/11/04 13:12:20;;;;;;;2.13;1.60;;;;;;;;;;5063631;28;20181;-55
2023/11/04 13:14:46;;;;;;;2.07;1.53;;;;;;;;;;5068015;28;20612;-55
2023/11/04 13:17:12;;;;;;;1.87;1.40;;;;;;;;;;5062505;28;20169;-55
2023/11/04 13:19:39;;;;;;;1.53;1.20;;;;;;;;;;5055537;28;20607;-54
2023/11/04 13:22:05;;;;;;;2.07;1.37;;;;;;;;;;5060766;28;20169;-55
2023/11/04 13:24:31;;;;;;;1.27;1.17;;;;;;;;;;5052414;28;20629;-56
2023/11/04 13:26:58;;;;;;;2.13;1.20;;;;;;;;;;5066054;28;20188;-55
2023/11/04 13:29:25;;;;;;;4.40;1.43;;;;;;;;;;5068029;28;20198;-56
2023/11/04 13:31:51;;;;;;;1.83;1.20;;;;;;;;;;5056127;28;20746;-55
2023/11/04 13:34:18;;;;;;;2.40;1.37;;;;;;;;;;5059655;28;20647;-55
2023/11/04 13:36:44;;;;;;;1.43;1.10;;;;;;;;;;5061073;28;20193;-55
2023/11/04 13:39:11;;;;;;;1.73;1.27;;;;;;;;;;5065480;28;20212;-54
2023/11/04 13:41:37;;;;;;;1.63;1.40;;;;;;;;;;5073470;28;20353;-55
2023/11/04 13:44:04;;;;;;;2.13;1.50;;;;;;;;;;5053222;28;20195;-55
2023/11/04 13:46:30;;;;;;;1.63;1.20;;;;;;;;;;5056400;28;20229;-55
2023/11/04 13:48:57;;;;;;;2.50;1.07;;;;;;;;;;5067128;28;20665;-54
2023/11/04 13:51:24;;;;;;;1.70;1.10;;;;;;;;;;5067128;28;20183;-56
2023/11/04 13:53:50;;;;;;;1.97;1.20;;;;;;;;;;5062909;28;20588;-56
2023/11/04 13:56:25;;;;;;;1.20;1.10;;;;;;;;;;5059078;28;20172;-55
2023/11/04 13:58:51;;;;;;;1.53;1.33;;;;;;;;;;5059476;28;20204;-55
2023/11/04 14:01:18;;;;;;;1.23;1.07;;;;;;;;;;5067779;28;20214;-56
2023/11/04 14:03:44;;;;;;;0.97;0.97;;;;;;;;;;5066538;28;20188;-58
2023/11/04 14:06:11;;;;;;;0.87;0.87;;;;;;;;;;5067871;28;20165;-56
2023/11/04 14:08:37;;;;;;;3.33;1.40;;;;;;;;;;5067375;28;20192;-57
2023/11/04 14:11:03;;;;;;;1.80;1.30;;;;;;;;;;5068072;28;20172;-57
2023/11/04 14:13:30;;;;;;;1.97;1.10;;;;;;;;;;5062375;28;20230;-56
2023/11/04 14:15:56;;;;;;;2.83;1.13;;;;;;;;;;5063319;28;20215;-56
2023/11/04 14:18:23;;;;;;;1.40;0.90;;;;;;;;;;5064426;28;20184;-57
2023/11/04 14:20:50;;;;;;;1.60;1.10;;;;;;;;;;5065017;28;20250;-57
2023/11/04 14:23:16;;;;;;;1.07;1.07;;;;;;;;;;5068006;28;20913;-57
2023/11/04 14:25:43;;;;;;;1.30;1.17;;;;;;;;;;5059577;28;20180;-57
2023/11/04 14:28:10;;;;;;;1.00;1.00;;;;;;;;;;5059962;28;20199;-56
2023/11/04 14:30:36;;;;;;;0.90;0.90;;;;;;;;;;5064701;28;20527;-57
2023/11/04 14:33:02;;;;;;;1.40;1.10;;;;;;;;;;5075275;28;20355;-58
2023/11/04 14:35:29;;;;;;;1.67;1.17;;;;;;;;;;5068454;28;20188;-57
2023/11/04 14:37:55;;;;;;;6.03;1.30;;;;;;;;;;5068313;28;20238;-57
2023/11/04 14:40:22;;;;;;;1.00;1.00;;;;;;;;;;5062568;28;20200;-57